createdAt,value
2019-05-26T00:00:08.503Z,13.5
2019-05-26T00:01:08.453Z,13.4
2019-05-26T00:02:08.629Z,13.5
2019-05-26T00:03:08.622Z,13.5
2019-05-26T00:04:08.624Z,13.4
2019-05-26T00:05:08.647Z,13.4
2019-05-26T00:06:08.714Z,13.4
2019-05-26T00:07:08.750Z,13.4
2019-05-26T00:08:08.804Z,13.4
2019-05-26T00:09:08.827Z,13.5
2019-05-26T00:10:08.940Z,13.5
2019-05-26T00:11:08.943Z,13.4
2019-05-26T00:12:09.022Z,13.3
2019-05-26T00:13:09.075Z,13.3
2019-05-26T00:14:09.133Z,13.3
2019-05-26T00:15:09.237Z,13.4
2019-05-26T00:16:09.317Z,13.4
2019-05-26T00:17:09.358Z,13.3
2019-05-26T00:18:09.420Z,13.3
2019-05-26T00:19:09.443Z,13.3
2019-05-26T00:20:09.485Z,13.4
2019-05-26T00:21:09.583Z,13.4
2019-05-26T00:22:09.607Z,13.3
2019-05-26T00:23:09.697Z,13.3
2019-05-26T00:24:09.718Z,13.3
2019-05-26T00:25:09.785Z,13.3
2019-05-26T00:26:09.860Z,13.3
2019-05-26T00:27:09.896Z,13.3
2019-05-26T00:28:10.060Z,13.3
2019-05-26T00:29:10.045Z,13.3
2019-05-26T00:30:10.073Z,13.2
2019-05-26T00:31:10.093Z,13.2
2019-05-26T00:32:10.189Z,13.2
2019-05-26T00:33:10.355Z,13.3
2019-05-26T00:34:10.318Z,13.4
2019-05-26T00:35:10.419Z,13.4
2019-05-26T00:36:10.480Z,13.4
2019-05-26T00:37:10.489Z,13.2
2019-05-26T00:38:10.606Z,13.3
2019-05-26T00:39:10.624Z,13.2
2019-05-26T00:40:10.668Z,13.2
2019-05-26T00:41:10.714Z,13.2
2019-05-26T00:42:10.775Z,13.2
2019-05-26T00:43:10.877Z,13.3
2019-05-26T00:44:10.866Z,13.3
2019-05-26T00:45:10.894Z,13.1
2019-05-26T00:46:10.969Z,13.1
2019-05-26T00:47:11.004Z,13.2
2019-05-26T00:48:11.127Z,13.2
2019-05-26T00:49:11.147Z,13.3
2019-05-26T00:50:11.184Z,13.3
2019-05-26T00:51:11.249Z,13.3
2019-05-26T00:52:11.293Z,13.3
2019-05-26T00:53:11.346Z,13.3
2019-05-26T00:54:11.483Z,13.3
2019-05-26T00:55:11.465Z,13.4
2019-05-26T00:56:11.512Z,13.4
2019-05-26T00:57:11.627Z,13.4
2019-05-26T00:58:11.815Z,13.4
2019-05-26T00:59:11.721Z,13.4
2019-05-26T01:00:11.912Z,13.4
2019-05-26T01:01:11.838Z,13.4
2019-05-26T01:02:11.902Z,13.4
2019-05-26T01:03:11.962Z,13.4
2019-05-26T01:04:12.003Z,13.4
2019-05-26T01:05:12.068Z,13.4
2019-05-26T01:06:12.124Z,13.4
2019-05-26T01:07:12.195Z,13.4
2019-05-26T01:08:12.271Z,13.4
2019-05-26T01:09:12.316Z,13.5
2019-05-26T01:10:12.407Z,13.3
2019-05-26T01:11:12.443Z,13.3
2019-05-26T01:12:12.503Z,13.3
2019-05-26T01:13:12.587Z,13.3
2019-05-26T01:14:12.605Z,13.3
2019-05-26T01:15:12.735Z,13.3
2019-05-26T01:16:12.751Z,13.3
2019-05-26T01:17:12.817Z,13.3
2019-05-26T01:18:12.886Z,13.3
2019-05-26T01:19:12.943Z,13.3
2019-05-26T01:20:12.995Z,13.4
2019-05-26T01:21:13.043Z,13.4
2019-05-26T01:22:13.098Z,13.3
2019-05-26T01:23:13.145Z,13.3
2019-05-26T01:24:13.220Z,13.4
2019-05-26T01:25:13.255Z,13.4
2019-05-26T01:26:13.396Z,13.3
2019-05-26T01:27:13.402Z,13.3
2019-05-26T01:28:13.506Z,13.2
2019-05-26T01:29:13.534Z,13.3
2019-05-26T01:30:13.664Z,13.2
2019-05-26T01:31:13.777Z,13.2
2019-05-26T01:32:14.075Z,13.2
2019-05-26T01:33:13.955Z,13.1
2019-05-26T01:34:13.795Z,13
2019-05-26T01:35:14.047Z,13
2019-05-26T01:36:15.454Z,13
2019-05-26T01:37:14.042Z,13.1
2019-05-26T01:38:23.561Z,13.1
2019-05-26T01:39:14.473Z,13
2019-05-26T01:40:14.191Z,13
2019-05-26T01:41:14.221Z,13
2019-05-26T01:42:14.709Z,13.1
2019-05-26T01:43:14.321Z,13.1
2019-05-26T01:44:14.850Z,13.1
2019-05-26T01:45:14.491Z,13.1
2019-05-26T01:46:15.660Z,13.1
2019-05-26T01:47:14.623Z,13.1
2019-05-26T01:48:15.222Z,13.1
2019-05-26T01:49:14.682Z,13
2019-05-26T01:50:14.935Z,12.9
2019-05-26T01:51:14.770Z,13
2019-05-26T01:52:15.089Z,12.9
2019-05-26T01:53:14.892Z,12.8
2019-05-26T01:54:15.154Z,12.8
2019-05-26T01:55:14.990Z,12.8
2019-05-26T01:56:15.247Z,12.9
2019-05-26T01:57:15.102Z,12.8
2019-05-26T01:58:15.593Z,12.7
2019-05-26T01:59:15.210Z,12.7
2019-05-26T02:00:17.481Z,12.7
2019-05-26T02:01:15.342Z,12.8
2019-05-26T02:02:16.109Z,12.7
2019-05-26T02:03:15.420Z,12.7
2019-05-26T02:04:15.522Z,12.7
2019-05-26T02:05:15.510Z,12.7
2019-05-26T02:06:15.978Z,12.6
2019-05-26T02:07:15.704Z,12.6
2019-05-26T02:08:15.960Z,12.5
2019-05-26T02:09:15.812Z,12.5
2019-05-26T02:10:17.059Z,12.5
2019-05-26T02:11:15.985Z,12.5
2019-05-26T02:12:16.662Z,12.5
2019-05-26T02:13:16.120Z,12.6
2019-05-26T02:14:16.134Z,12.6
2019-05-26T02:15:16.172Z,12.7
2019-05-26T02:16:17.123Z,12.6
2019-05-26T02:17:16.311Z,12.2
2019-05-26T02:18:17.131Z,12.2
2019-05-26T02:19:16.431Z,20.4
2019-05-26T02:20:17.329Z,12.4
2019-05-26T02:21:16.521Z,12.5
2019-05-26T02:22:16.589Z,12.5
2019-05-26T02:23:16.647Z,12.5
2019-05-26T02:24:17.616Z,12.6
2019-05-26T02:25:16.719Z,12.6
2019-05-26T02:26:18.317Z,12.5
2019-05-26T02:27:16.821Z,12.6
2019-05-26T02:28:16.942Z,12.6
2019-05-26T02:29:16.951Z,12.4
2019-05-26T02:30:16.987Z,12.3
2019-05-26T02:31:17.044Z,12.3
2019-05-26T02:32:17.145Z,12.3
2019-05-26T02:33:17.155Z,12.3
2019-05-26T02:34:18.415Z,12.4
2019-05-26T02:35:17.326Z,12.4
2019-05-26T02:36:19.756Z,12.4
2019-05-26T02:37:17.382Z,12.3
2019-05-26T02:38:18.081Z,12.4
2019-05-26T02:39:17.559Z,12.3
2019-05-26T02:40:18.343Z,12.1
2019-05-26T02:41:17.634Z,12
2019-05-26T02:42:20.147Z,12
2019-05-26T02:43:17.816Z,12.1
2019-05-26T02:44:18.951Z,12.1
2019-05-26T02:45:17.930Z,12.1
2019-05-26T02:46:19.032Z,12.1
2019-05-26T02:47:18.001Z,12
2019-05-26T02:48:19.319Z,12
2019-05-26T02:49:18.102Z,12.1
2019-05-26T02:50:21.396Z,12.2
2019-05-26T02:51:18.222Z,12.2
2019-05-26T02:52:20.813Z,12.2
2019-05-26T02:53:18.312Z,12.2
2019-05-26T02:54:18.590Z,12.1
2019-05-26T02:55:18.643Z,11.9
2019-05-26T02:56:20.351Z,11.8
2019-05-26T02:57:18.512Z,11.7
2019-05-26T02:58:18.678Z,11.8
2019-05-26T02:59:18.662Z,11.8
2019-05-26T03:00:21.672Z,11.8
2019-05-26T03:01:18.870Z,11.5
2019-05-26T03:02:19.440Z,11.5
2019-05-26T03:03:18.870Z,11.5
2019-05-26T03:04:19.112Z,11.7
2019-05-26T03:05:18.998Z,11.8
2019-05-26T03:06:20.297Z,11.7
2019-05-26T03:07:19.697Z,11.8
2019-05-26T03:08:20.443Z,11.9
2019-05-26T03:09:46.242Z,11.9
2019-05-26T03:10:19.252Z,11.8
2019-05-26T03:11:19.434Z,12
2019-05-26T03:12:19.397Z,12
2019-05-26T03:13:19.475Z,11.9
2019-05-26T03:14:19.501Z,11.9
2019-05-26T03:15:19.579Z,12
2019-05-26T03:16:19.653Z,12
2019-05-26T03:17:19.674Z,12
2019-05-26T03:18:19.754Z,12
2019-05-26T03:19:19.814Z,12
2019-05-26T03:20:19.835Z,12
2019-05-26T03:21:19.936Z,12
2019-05-26T03:22:20.005Z,11.9
2019-05-26T03:23:20.051Z,12
2019-05-26T03:24:20.115Z,12
2019-05-26T03:25:20.169Z,11.9
2019-05-26T03:26:20.253Z,11.7
2019-05-26T03:27:20.288Z,11.9
2019-05-26T03:28:20.360Z,11.9
2019-05-26T03:29:20.430Z,12.1
2019-05-26T03:30:20.472Z,12.2
2019-05-26T03:31:20.577Z,12.2
2019-05-26T03:32:20.615Z,12.1
2019-05-26T03:33:20.626Z,12
2019-05-26T03:34:20.712Z,12
2019-05-26T03:35:20.824Z,12
2019-05-26T03:36:20.796Z,12.2
2019-05-26T03:37:20.854Z,12
2019-05-26T03:38:20.895Z,12.1
2019-05-26T03:39:39.556Z,12.2
2019-05-26T03:40:21.018Z,12.3
2019-05-26T03:41:21.079Z,12.1
2019-05-26T03:42:21.150Z,12.1
2019-05-26T03:43:21.176Z,12
2019-05-26T03:44:21.198Z,12.1
2019-05-26T03:45:21.305Z,12
2019-05-26T03:46:21.340Z,11.9
2019-05-26T03:47:21.426Z,11.9
2019-05-26T03:48:21.471Z,11.9
2019-05-26T03:49:21.585Z,12
2019-05-26T03:50:21.571Z,12
2019-05-26T03:51:21.652Z,12
2019-05-26T03:52:21.727Z,11.9
2019-05-26T03:53:21.766Z,11.9
2019-05-26T03:54:21.855Z,11.9
2019-05-26T03:55:21.939Z,11.9
2019-05-26T03:56:21.971Z,11.9
2019-05-26T03:57:22.047Z,11.8
2019-05-26T03:58:22.089Z,11.8
2019-05-26T03:59:22.253Z,11.8
2019-05-26T04:00:22.207Z,11.8
2019-05-26T04:01:22.250Z,11.7
2019-05-26T04:02:22.372Z,11.7
2019-05-26T04:03:22.355Z,11.7
2019-05-26T04:04:22.463Z,11.6
2019-05-26T04:05:22.483Z,11.8
2019-05-26T04:06:22.645Z,11.8
2019-05-26T04:07:22.818Z,11.9
2019-05-26T04:08:22.716Z,11.9
2019-05-26T04:09:22.784Z,11.9
2019-05-26T04:10:22.842Z,11.9
2019-05-26T04:11:22.822Z,11.9
2019-05-26T04:12:23.022Z,11.9
2019-05-26T04:13:22.941Z,12
2019-05-26T04:14:23.067Z,12
2019-05-26T04:15:23.182Z,12
2019-05-26T04:16:23.133Z,12
2019-05-26T04:17:23.218Z,12
2019-05-26T04:18:23.321Z,12
2019-05-26T04:19:23.336Z,11.9
2019-05-26T04:20:23.457Z,11.9
2019-05-26T04:21:23.473Z,11.9
2019-05-26T04:22:23.494Z,12
2019-05-26T04:23:23.599Z,12
2019-05-26T04:24:23.598Z,12.2
2019-05-26T04:25:23.637Z,12.3
2019-05-26T04:26:23.689Z,12.3
2019-05-26T04:27:23.754Z,12.3
2019-05-26T04:28:23.846Z,12.1
2019-05-26T04:29:23.876Z,12
2019-05-26T04:30:24.246Z,11.9
2019-05-26T04:31:23.996Z,11.7
2019-05-26T04:32:24.060Z,11.6
2019-05-26T04:33:24.096Z,11.7
2019-05-26T04:34:24.279Z,12
2019-05-26T04:35:24.256Z,12.1
2019-05-26T04:36:24.267Z,12.1
2019-05-26T04:37:24.326Z,12
2019-05-26T04:38:24.435Z,11.9
2019-05-26T04:39:24.453Z,11.8
2019-05-26T04:40:26.869Z,11.8
2019-05-26T04:41:24.569Z,11.8
2019-05-26T04:42:24.612Z,11.8
2019-05-26T04:43:24.720Z,11.9
2019-05-26T04:44:24.767Z,11.9
2019-05-26T04:45:24.785Z,11.9
2019-05-26T04:46:24.885Z,11.8
2019-05-26T04:47:24.894Z,11.9
2019-05-26T04:48:24.943Z,11.8
2019-05-26T04:49:25.104Z,11.8
2019-05-26T04:50:25.055Z,11.9
2019-05-26T04:51:25.176Z,12
2019-05-26T04:52:25.151Z,11.9
2019-05-26T04:53:25.221Z,11.9
2019-05-26T04:54:25.345Z,11.9
2019-05-26T04:55:25.394Z,11.8
2019-05-26T04:56:25.382Z,11.8
2019-05-26T04:57:25.459Z,11.9
2019-05-26T05:00:25.890Z,12
2019-05-26T05:01:25.982Z,12.1
2019-05-26T05:02:26.028Z,12.3
2019-05-26T05:03:26.064Z,12.1
2019-05-26T05:04:26.127Z,11.9
2019-05-26T05:05:26.320Z,11.9
2019-05-26T05:06:26.271Z,11.9
2019-05-26T05:07:28.395Z,11.9
2019-05-26T05:08:26.354Z,11.8
2019-05-26T05:09:26.457Z,12
2019-05-26T05:10:41.191Z,12
2019-05-26T05:11:26.527Z,12
2019-05-26T05:12:26.600Z,11.9
2019-05-26T05:13:26.646Z,12.1
2019-05-26T05:14:26.725Z,12
2019-05-26T05:15:26.777Z,12
2019-05-26T05:16:26.852Z,12
2019-05-26T05:17:26.867Z,12
2019-05-26T05:18:26.995Z,12
2019-05-26T05:19:27.039Z,12
2019-05-26T05:20:27.080Z,12.1
2019-05-26T05:21:27.146Z,12.1
2019-05-26T05:22:27.196Z,12.2
2019-05-26T05:23:27.257Z,12.2
2019-05-26T05:24:27.284Z,12.2
2019-05-26T05:25:27.375Z,12.3
2019-05-26T05:26:27.407Z,12.3
2019-05-26T05:27:27.862Z,12.2
2019-05-26T05:28:27.515Z,12.3
2019-05-26T05:29:27.591Z,12.3
2019-05-26T05:30:27.627Z,12.3
2019-05-26T05:31:27.646Z,12.3
2019-05-26T05:32:27.736Z,12.3
2019-05-26T05:33:27.819Z,12.4
2019-05-26T05:34:27.864Z,12.3
2019-05-26T05:35:27.886Z,12.4
2019-05-26T05:36:27.991Z,12.5
2019-05-26T05:37:28.041Z,12.5
2019-05-26T05:38:28.088Z,12.5
2019-05-26T05:39:28.139Z,12.6
2019-05-26T05:40:28.259Z,12.7
2019-05-26T05:41:28.293Z,12.8
2019-05-26T05:42:28.359Z,12.9
2019-05-26T05:43:28.432Z,13
2019-05-26T05:44:28.515Z,12.9
2019-05-26T05:45:28.575Z,12.9
2019-05-26T05:46:28.597Z,12.9
2019-05-26T05:47:28.638Z,13
2019-05-26T05:48:28.693Z,13
2019-05-26T05:49:28.739Z,13
2019-05-26T05:50:28.887Z,13
2019-05-26T05:51:28.998Z,13.1
2019-05-26T05:52:28.933Z,13.2
2019-05-26T05:53:28.978Z,13.3
2019-05-26T05:54:29.039Z,13.3
2019-05-26T05:55:29.123Z,13.3
2019-05-26T05:56:29.495Z,13.3
2019-05-26T05:57:29.502Z,13.3
2019-05-26T05:58:29.701Z,13.3
2019-05-26T05:59:29.721Z,13.3
2019-05-26T06:00:29.586Z,13.3
2019-05-26T06:01:29.427Z,13.3
2019-05-26T06:02:29.568Z,13.3
2019-05-26T06:03:29.600Z,13.3
2019-05-26T06:04:29.598Z,13.3
2019-05-26T06:05:29.725Z,13.2
2019-05-26T06:06:29.699Z,13.3
2019-05-26T06:07:29.772Z,13.4
2019-05-26T06:08:29.805Z,13.4
2019-05-26T06:09:29.947Z,13.4
2019-05-26T06:10:29.978Z,13.5
2019-05-26T06:11:30.039Z,13.5
2019-05-26T06:12:30.076Z,13.5
2019-05-26T06:13:30.123Z,13.5
2019-05-26T06:14:30.288Z,13.6
2019-05-26T06:15:30.263Z,13.6
2019-05-26T06:16:30.318Z,13.6
2019-05-26T06:17:30.517Z,13.6
2019-05-26T06:18:30.449Z,13.6
2019-05-26T06:19:30.482Z,13.6
2019-05-26T06:20:30.593Z,13.5
2019-05-26T06:21:30.649Z,13.5
2019-05-26T06:22:30.654Z,13.6
2019-05-26T06:23:30.701Z,13.7
2019-05-26T06:24:30.783Z,13.7
2019-05-26T06:25:30.816Z,13.6
2019-05-26T06:26:30.839Z,13.7
2019-05-26T06:27:30.982Z,13.7
2019-05-26T06:28:30.978Z,13.8
2019-05-26T06:29:31.011Z,13.8
2019-05-26T06:30:31.077Z,13.9
2019-05-26T06:31:31.125Z,14
2019-05-26T06:32:31.182Z,13.9
2019-05-26T06:33:31.234Z,13.9
2019-05-26T06:34:31.279Z,13.8
2019-05-26T06:35:32.697Z,13.8
2019-05-26T06:36:31.405Z,13.9
2019-05-26T06:37:31.488Z,14
2019-05-26T06:38:31.558Z,14.1
2019-05-26T06:39:31.615Z,14
2019-05-26T06:40:31.640Z,14
2019-05-26T06:41:33.700Z,14
2019-05-26T06:42:31.768Z,14.1
2019-05-26T06:43:31.911Z,14.3
2019-05-26T06:44:31.890Z,14.4
2019-05-26T06:45:31.940Z,14.3
2019-05-26T06:46:32.019Z,14.4
2019-05-26T06:47:32.056Z,14.4
2019-05-26T06:48:32.163Z,14.3
2019-05-26T06:49:32.168Z,14.3
2019-05-26T06:50:32.227Z,14.4
2019-05-26T06:51:32.295Z,14.5
2019-05-26T06:52:32.386Z,14.6
2019-05-26T06:53:32.498Z,14.5
2019-05-26T06:54:32.530Z,14.5
2019-05-26T06:55:32.553Z,14.6
2019-05-26T06:56:32.723Z,14.6
2019-05-26T06:57:32.668Z,14.7
2019-05-26T06:58:32.757Z,14.8
2019-05-26T06:59:32.785Z,14.9
2019-05-26T07:00:32.883Z,14.8
2019-05-26T07:01:32.899Z,14.9
2019-05-26T07:02:32.949Z,15
2019-05-26T07:03:33.041Z,15
2019-05-26T07:04:33.059Z,15
2019-05-26T07:05:33.145Z,15
2019-05-26T07:06:33.207Z,14.9
2019-05-26T07:07:33.226Z,14.9
2019-05-26T07:08:33.315Z,14.9
2019-05-26T07:09:33.364Z,15
2019-05-26T07:10:33.412Z,15.1
2019-05-26T07:11:49.305Z,15.1
2019-05-26T07:12:33.558Z,14.9
2019-05-26T07:13:33.599Z,15
2019-05-26T07:14:33.673Z,15.1
2019-05-26T07:15:34.624Z,15
2019-05-26T07:16:37.876Z,15.1
2019-05-26T07:17:33.836Z,15.2
2019-05-26T07:18:33.889Z,15.2
2019-05-26T07:19:34.056Z,15.3
2019-05-26T07:20:33.984Z,15.2
2019-05-26T07:21:34.057Z,15.3
2019-05-26T07:22:34.082Z,15.4
2019-05-26T07:23:34.165Z,15.3
2019-05-26T07:24:38.555Z,15.5
2019-05-26T07:25:34.250Z,15.7
2019-05-26T07:26:34.255Z,15.8
2019-05-26T07:27:34.367Z,15.8
2019-05-26T07:28:34.447Z,15.8
2019-05-26T07:29:34.457Z,15.7
2019-05-26T07:30:34.564Z,15.8
2019-05-26T07:31:34.557Z,15.8
2019-05-26T07:32:34.657Z,16
2019-05-26T07:33:34.741Z,15.9
2019-05-26T07:34:34.771Z,15.9
2019-05-26T07:35:34.912Z,15.9
2019-05-26T07:36:53.186Z,15.9
2019-05-26T07:36:53.189Z,16
2019-05-26T07:37:34.968Z,16
2019-05-26T07:38:36.624Z,16.1
2019-05-26T07:39:35.318Z,16.1
2019-05-26T07:40:35.140Z,16.1
2019-05-26T07:41:35.198Z,16.3
2019-05-26T07:42:35.334Z,16.4
2019-05-26T07:43:35.271Z,16.5
2019-05-26T07:44:35.341Z,16.5
2019-05-26T07:45:35.409Z,16.7
2019-05-26T07:46:35.476Z,16.7
2019-05-26T07:47:35.694Z,16.6
2019-05-26T07:48:36.222Z,16.6
2019-05-26T07:49:39.377Z,16.5
2019-05-26T07:50:35.716Z,16.6
2019-05-26T07:51:35.766Z,16.5
2019-05-26T07:52:35.989Z,16.6
2019-05-26T07:53:35.895Z,16.5
2019-05-26T07:54:35.928Z,16.4
2019-05-26T07:55:36.002Z,16.5
2019-05-26T07:56:36.403Z,16.6
2019-05-26T07:57:36.170Z,16.8
2019-05-26T07:58:36.213Z,16.8
2019-05-26T07:59:36.255Z,17.1
2019-05-26T08:00:36.331Z,17.2
2019-05-26T08:01:36.659Z,16.9
2019-05-26T08:02:36.401Z,16.9
2019-05-26T08:03:36.510Z,16.9
2019-05-26T08:04:36.520Z,17
2019-05-26T08:05:36.593Z,17.2
2019-05-26T08:06:36.701Z,17.3
2019-05-26T08:07:36.837Z,17.4
2019-05-26T08:08:37.236Z,17.5
2019-05-26T08:09:36.874Z,17.7
2019-05-26T08:10:36.877Z,17.8
2019-05-26T08:11:37.071Z,17.5
2019-05-26T08:12:37.318Z,17.4
2019-05-26T08:13:37.094Z,17.7
2019-05-26T08:14:38.123Z,17.9
2019-05-26T08:15:37.693Z,18
2019-05-26T08:16:38.116Z,18.1
2019-05-26T08:17:37.518Z,18.3
2019-05-26T08:18:37.816Z,18.4
2019-05-26T08:19:37.856Z,18.2
2019-05-26T08:20:37.607Z,18.3
2019-05-26T08:21:37.804Z,18.5
2019-05-26T08:22:37.655Z,18.6
2019-05-26T08:23:38.623Z,18.7
2019-05-26T08:24:38.190Z,18.6
2019-05-26T08:25:38.295Z,18.3
2019-05-26T08:26:37.904Z,18.6
2019-05-26T08:27:38.476Z,18.8
2019-05-26T08:28:38.021Z,18.9
2019-05-26T08:29:38.812Z,18.9
2019-05-26T08:30:39.371Z,18.9
2019-05-26T08:31:38.237Z,18.3
2019-05-26T08:32:38.294Z,18.3
2019-05-26T08:33:38.327Z,18.6
2019-05-26T08:34:38.480Z,18.5
2019-05-26T08:35:38.465Z,18.6
2019-05-26T08:36:39.471Z,18.5
2019-05-26T08:37:38.616Z,18.2
2019-05-26T08:38:38.667Z,18
2019-05-26T08:39:38.708Z,18
2019-05-26T08:40:38.777Z,18
2019-05-26T08:41:38.741Z,18.1
2019-05-26T08:42:44.290Z,18.1
2019-05-26T08:43:38.921Z,18.1
2019-05-26T08:44:38.947Z,18.4
2019-05-26T08:45:38.967Z,18.4
2019-05-26T08:46:42.372Z,18.3
2019-05-26T08:47:39.103Z,18.3
2019-05-26T08:48:41.121Z,18.4
2019-05-26T08:49:39.217Z,18.4
2019-05-26T08:50:39.526Z,18.6
2019-05-26T08:51:39.330Z,18.8
2019-05-26T08:52:39.386Z,33.6
2019-05-26T08:53:39.524Z,18.3
2019-05-26T08:54:40.826Z,18.4
2019-05-26T08:55:39.568Z,18.2
2019-05-26T08:56:42.814Z,18.2
2019-05-26T08:57:39.736Z,18.3
2019-05-26T08:58:39.761Z,18.6
2019-05-26T08:59:41.094Z,18.9
2019-05-26T09:00:39.851Z,18.9
2019-05-26T09:01:40.483Z,19.3
2019-05-26T09:02:39.942Z,19.6
2019-05-26T09:03:39.981Z,19.7
2019-05-26T09:04:40.035Z,19.6
2019-05-26T09:05:40.125Z,19.8
2019-05-26T09:06:40.145Z,27.1
2019-05-26T09:07:40.203Z,19.9
2019-05-26T09:08:40.279Z,19.8
2019-05-26T09:09:40.323Z,19.7
2019-05-26T09:10:40.445Z,19.8
2019-05-26T09:11:40.454Z,19.6
2019-05-26T09:12:40.756Z,19.4
2019-05-26T09:13:40.635Z,19.1
2019-05-26T09:14:40.760Z,19.3
2019-05-26T09:15:40.874Z,19.7
2019-05-26T09:16:41.877Z,19.9
2019-05-26T09:17:40.896Z,19.3
2019-05-26T09:18:40.927Z,18.9
2019-05-26T09:19:41.011Z,19
2019-05-26T09:20:41.048Z,19.3
2019-05-26T09:21:41.117Z,19.5
2019-05-26T09:22:41.168Z,19.8
2019-05-26T09:23:41.257Z,20.2
2019-05-26T09:24:41.315Z,20.3
2019-05-26T09:25:41.356Z,27.7
2019-05-26T09:26:41.416Z,20.7
2019-05-26T09:27:41.444Z,20.8
2019-05-26T09:28:41.515Z,20.8
2019-05-26T09:29:41.576Z,20.6
2019-05-26T09:30:41.640Z,20.4
2019-05-26T09:31:41.682Z,20.6
2019-05-26T09:32:41.725Z,20.7
2019-05-26T09:33:41.818Z,20.4
2019-05-26T09:34:41.940Z,20.6
2019-05-26T09:35:42.016Z,20.7
2019-05-26T09:36:42.038Z,20.4
2019-05-26T09:37:42.034Z,20.3
2019-05-26T09:38:42.162Z,20.6
2019-05-26T09:39:42.172Z,20.5
2019-05-26T09:40:42.226Z,20.4
2019-05-26T09:41:42.238Z,20.5
2019-05-26T09:42:42.293Z,20.7
2019-05-26T09:43:42.376Z,21.2
2019-05-26T09:44:42.455Z,21.2
2019-05-26T09:45:42.578Z,21.1
2019-05-26T09:46:42.517Z,20.9
2019-05-26T09:47:42.514Z,20.7
2019-05-26T09:48:42.584Z,20.8
2019-05-26T09:49:42.696Z,21.3
2019-05-26T09:50:42.788Z,21.3
2019-05-26T09:51:42.736Z,21.3
2019-05-26T09:52:42.862Z,21.2
2019-05-26T09:53:42.978Z,21.3
2019-05-26T09:54:42.903Z,21.4
2019-05-26T09:55:43.015Z,21.6
2019-05-26T09:56:44.489Z,21.7
2019-05-26T09:57:43.236Z,21.3
2019-05-26T09:58:43.164Z,21.1
2019-05-26T09:59:43.213Z,21.3
2019-05-26T10:00:43.398Z,21.5
2019-05-26T10:01:43.356Z,21.3
2019-05-26T10:02:43.441Z,20.9
2019-05-26T10:03:43.477Z,21
2019-05-26T10:04:43.687Z,21.2
2019-05-26T10:05:43.881Z,21.2
2019-05-26T10:06:43.923Z,28.5
2019-05-26T10:07:43.687Z,21.3
2019-05-26T10:08:44.706Z,21.3
2019-05-26T10:09:43.955Z,21.5
2019-05-26T10:10:43.977Z,21.8
2019-05-26T10:11:44.046Z,22
2019-05-26T10:12:44.216Z,22.2
2019-05-26T10:13:43.972Z,22
2019-05-26T10:14:47.150Z,22.1
2019-05-26T10:15:44.281Z,21.9
2019-05-26T10:16:44.110Z,21.9
2019-05-26T10:17:44.227Z,21.9
2019-05-26T10:18:44.268Z,22.3
2019-05-26T10:19:44.352Z,22.3
2019-05-26T10:20:44.471Z,22.3
2019-05-26T10:21:44.483Z,22.2
2019-05-26T10:22:44.668Z,22
2019-05-26T10:23:44.670Z,22.2
2019-05-26T10:24:44.831Z,22.1
2019-05-26T10:25:44.785Z,22.1
2019-05-26T10:26:44.851Z,22
2019-05-26T10:27:44.859Z,22.1
2019-05-26T10:28:45.000Z,22.2
2019-05-26T10:29:44.940Z,22.6
2019-05-26T10:30:45.035Z,23.1
2019-05-26T10:31:45.121Z,23.2
2019-05-26T10:32:45.198Z,22.8
2019-05-26T10:33:45.208Z,22.4
2019-05-26T10:34:50.291Z,22.1
2019-05-26T10:35:45.312Z,21.9
2019-05-26T10:36:45.381Z,21.5
2019-05-26T10:37:45.415Z,21.5
2019-05-26T10:38:45.731Z,21.3
2019-05-26T10:39:45.820Z,21.4
2019-05-26T10:40:45.946Z,21.3
2019-05-26T10:41:45.665Z,21.1
2019-05-26T10:42:45.731Z,21.1
2019-05-26T10:43:47.539Z,20.9
2019-05-26T10:44:45.937Z,21.2
2019-05-26T10:45:45.944Z,21.3
2019-05-26T10:46:46.040Z,21.3
2019-05-26T10:47:46.214Z,21.1
2019-05-26T10:48:48.217Z,21
2019-05-26T10:49:46.207Z,21
2019-05-26T10:50:46.397Z,21.3
2019-05-26T10:51:46.816Z,21.4
2019-05-26T10:52:46.317Z,21.6
2019-05-26T10:53:46.277Z,21.2
2019-05-26T10:54:46.361Z,20.7
2019-05-26T10:55:46.402Z,20.5
2019-05-26T10:56:46.656Z,20.4
2019-05-26T10:57:47.922Z,20.7
2019-05-26T10:58:46.698Z,21
2019-05-26T10:59:46.711Z,21.3
2019-05-26T11:00:46.752Z,21.2
2019-05-26T11:01:46.860Z,21.3
2019-05-26T11:02:46.846Z,21.4
2019-05-26T11:03:46.970Z,21.4
2019-05-26T11:04:47.056Z,21.3
2019-05-26T11:05:47.047Z,21.4
2019-05-26T11:06:47.099Z,21.5
2019-05-26T11:07:47.727Z,21.5
2019-05-26T11:08:47.198Z,21.4
2019-05-26T11:09:47.302Z,21.4
2019-05-26T11:10:47.325Z,21.4
2019-05-26T11:11:47.319Z,21.4
2019-05-26T11:12:47.377Z,21.8
2019-05-26T11:14:01.743Z,21.7
2019-05-26T11:14:47.590Z,21.4
2019-05-26T11:15:47.594Z,21.6
2019-05-26T11:16:48.097Z,21.8
2019-05-26T11:17:47.691Z,21.7
2019-05-26T11:18:47.730Z,21.5
2019-05-26T11:19:47.926Z,21.4
2019-05-26T11:20:48.151Z,21.3
2019-05-26T11:21:47.981Z,21.3
2019-05-26T11:22:48.004Z,21.5
2019-05-26T11:23:48.082Z,21.3
2019-05-26T11:24:50.142Z,21.3
2019-05-26T11:25:48.223Z,21.1
2019-05-26T11:26:48.671Z,21
2019-05-26T11:27:48.347Z,21.1
2019-05-26T11:28:48.593Z,21.3
2019-05-26T11:29:48.508Z,21.3
2019-05-26T11:30:48.635Z,21.5
2019-05-26T11:31:48.722Z,21.4
2019-05-26T11:32:49.017Z,21.1
2019-05-26T11:33:48.852Z,21.2
2019-05-26T11:35:00.919Z,21.3
2019-05-26T11:35:48.732Z,21
2019-05-26T11:36:49.831Z,21
2019-05-26T11:37:48.848Z,21
2019-05-26T11:38:50.135Z,21.1
2019-05-26T11:39:48.947Z,21.1
2019-05-26T11:40:49.043Z,20.9
2019-05-26T11:41:54.777Z,20.9
2019-05-26T11:42:49.294Z,21
2019-05-26T11:43:49.194Z,20.8
2019-05-26T11:44:54.175Z,20.8
2019-05-26T11:45:49.364Z,20.8
2019-05-26T11:46:50.566Z,20.6
2019-05-26T11:47:49.483Z,20.6
2019-05-26T11:48:49.533Z,20.4
2019-05-26T11:49:49.540Z,20.6
2019-05-26T11:50:49.624Z,20.6
2019-05-26T11:51:49.648Z,20.6
2019-05-26T11:52:49.734Z,20.6
2019-05-26T11:53:50.155Z,20.6
2019-05-26T11:54:49.907Z,20.5
2019-05-26T11:55:49.952Z,20.5
2019-05-26T11:56:49.945Z,20.4
2019-05-26T11:57:50.042Z,20.4
2019-05-26T11:58:51.263Z,20.4
2019-05-26T11:59:50.100Z,20.4
2019-05-26T12:00:50.153Z,20.3
2019-05-26T12:01:50.293Z,20.4
2019-05-26T12:02:50.415Z,20.4
2019-05-26T12:03:51.815Z,20.5
2019-05-26T12:04:58.055Z,20.6
2019-05-26T12:05:50.472Z,20.4
2019-05-26T12:06:52.281Z,20.3
2019-05-26T12:07:56.136Z,20.3
2019-05-26T12:08:50.650Z,20.3
2019-05-26T12:09:50.785Z,20.4
2019-05-26T12:10:50.775Z,20.4
2019-05-26T12:11:51.302Z,20.5
2019-05-26T12:12:51.377Z,20.5
2019-05-26T12:13:51.933Z,20.4
2019-05-26T12:14:50.965Z,20.4
2019-05-26T12:15:50.968Z,20.5
2019-05-26T12:16:51.619Z,20.5
2019-05-26T12:17:51.121Z,20.4
2019-05-26T12:18:51.165Z,20.3
2019-05-26T12:19:51.196Z,20.4
2019-05-26T12:20:51.281Z,20.5
2019-05-26T12:21:51.311Z,20.4
2019-05-26T12:22:51.413Z,20.4
2019-05-26T12:23:54.560Z,20.5
2019-05-26T12:24:51.465Z,20.5
2019-05-26T12:25:51.552Z,20.5
2019-05-26T12:26:53.449Z,20.5
2019-05-26T12:27:51.634Z,20.4
2019-05-26T12:28:51.672Z,20.3
2019-05-26T12:29:51.735Z,20.3
2019-05-26T12:30:55.885Z,20.3
2019-05-26T12:31:52.106Z,20.3
2019-05-26T12:32:51.970Z,20.3
2019-05-26T12:33:51.990Z,20.5
2019-05-26T12:34:52.214Z,20.5
2019-05-26T12:35:52.090Z,20.4
2019-05-26T12:36:57.188Z,20.4
2019-05-26T12:37:52.307Z,20.4
2019-05-26T12:38:52.759Z,20.4
2019-05-26T12:39:52.328Z,20.5
2019-05-26T12:40:53.283Z,20.6
2019-05-26T12:41:52.504Z,20.7
2019-05-26T12:42:53.436Z,20.6
2019-05-26T12:44:02.557Z,20.6
2019-05-26T12:44:52.895Z,20.7
2019-05-26T12:45:52.750Z,20.6
2019-05-26T12:46:57.754Z,20.6
2019-05-26T12:47:53.095Z,20.6
2019-05-26T12:48:55.739Z,20.6
2019-05-26T12:49:52.998Z,20.4
2019-05-26T12:50:53.235Z,20.3
2019-05-26T12:51:53.185Z,20.3
2019-05-26T12:52:54.716Z,20.6
2019-05-26T12:53:53.270Z,20.7
2019-05-26T12:55:01.978Z,20.8
2019-05-26T12:55:54.140Z,20.9
2019-05-26T12:56:54.955Z,20.9
2019-05-26T12:57:53.472Z,20.9
2019-05-26T12:58:57.526Z,20.8
2019-05-26T12:59:53.569Z,20.8
2019-05-26T13:00:57.160Z,20.9
2019-05-26T13:01:53.725Z,21
2019-05-26T13:02:57.477Z,21
2019-05-26T13:03:53.991Z,21.1
2019-05-26T13:04:58.425Z,20.9
2019-05-26T13:05:53.922Z,20.8
2019-05-26T13:06:57.057Z,20.8
2019-05-26T13:07:54.006Z,20.9
2019-05-26T13:08:58.244Z,21.1
2019-05-26T13:09:54.141Z,21.1
2019-05-26T13:10:56.636Z,21
2019-05-26T13:11:54.223Z,20.9
2019-05-26T13:12:57.105Z,20.9
2019-05-26T13:13:54.767Z,21
2019-05-26T13:15:05.271Z,21.1
2019-05-26T13:15:54.598Z,21.2
2019-05-26T13:17:01.847Z,21.1
2019-05-26T13:17:54.847Z,21
2019-05-26T13:18:55.284Z,20.8
2019-05-26T13:19:56.550Z,20.7
2019-05-26T13:20:59.767Z,20.6
2019-05-26T13:21:54.856Z,20.7
2019-05-26T13:22:58.955Z,20.8
2019-05-26T13:23:54.967Z,20.9
2019-05-26T13:24:59.325Z,21
2019-05-26T13:25:55.070Z,21
2019-05-26T13:26:59.962Z,21